Time;durP1;ratioP1;P1;durP2;ratioP2;P2;SDS_P1;SDS_P2;PMS_P1;PMS_P2;Temp;Humidity;BMP_temperature;BMP_pressure;BME280_temperature;BME280_humidity;BME280_pressure;Samples;Min_cycle;Max_cycle;Signal;HPM_P1;HPM_P2
2023/05/13 00:00:41;;;;;;;4.03;3.73;;;;;;;14.87;65.07;101217.81;4974848;28;20241;-76
2023/05/13 00:03:07;;;;;;;4.60;4.17;;;;;;;14.84;65.30;101221.34;4974856;28;20679;-77
2023/05/13 00:05:33;;;;;;;4.37;4.07;;;;;;;14.85;65.42;101222.25;4974767;28;20259;-78
2023/05/13 00:08:05;;;;;;;5.40;5.10;;;;;;;14.84;64.99;101220.50;4974732;28;20640;-79
2023/05/13 00:10:32;;;;;;;5.00;4.70;;;;;;;14.78;64.85;101226.75;4974472;28;20295;-79
2023/05/13 00:12:58;;;;;;;4.40;4.00;;;;;;;14.75;64.58;101236.50;4974712;28;20633;-78
2023/05/13 00:15:26;;;;;;;4.70;4.30;;;;;;;14.72;64.64;101254.97;4974813;28;20264;-78
2023/05/13 00:17:53;;;;;;;5.07;4.57;;;;;;;14.75;63.78;101261.03;4974647;28;20284;-79
2023/05/13 00:20:20;;;;;;;5.20;4.70;;;;;;;14.70;65.40;101255.84;4974350;28;20273;-78
2023/05/13 00:22:46;;;;;;;5.37;4.60;;;;;;;14.66;64.86;101251.56;4974316;28;20231;-79
2023/05/13 00:25:13;;;;;;;4.80;4.40;;;;;;;14.64;64.89;101247.25;4974204;28;20299;-79
2023/05/13 00:27:39;;;;;;;5.10;4.80;;;;;;;14.56;64.53;101265.81;4974505;28;20235;-79
2023/05/13 00:30:07;;;;;;;5.97;4.70;;;;;;;14.55;65.63;101257.94;4974184;28;20611;-78
2023/05/13 00:32:35;;;;;;;5.60;5.10;;;;;;;14.39;65.39;101245.16;4973697;28;20211;-79
2023/05/13 00:35:01;;;;;;;5.80;4.37;;;;;;;14.41;65.10;101247.72;4974176;28;20729;-79
2023/05/13 00:37:27;;;;;;;4.97;4.40;;;;;;;14.40;65.23;101246.88;4974161;28;20230;-79
2023/05/13 00:39:54;;;;;;;5.90;5.30;;;;;;;14.38;65.54;101237.31;4974033;28;20212;-78
2023/05/13 00:42:20;;;;;;;5.60;5.13;;;;;;;14.37;67.16;101240.81;4974181;28;20204;-78
2023/05/13 00:44:47;;;;;;;4.80;4.50;;;;;;;14.26;67.32;101206.91;4974201;28;20232;-78
2023/05/13 00:47:13;;;;;;;5.20;4.77;;;;;;;14.26;66.59;101204.28;4973849;28;20239;-79
2023/05/13 00:49:41;;;;;;;7.70;5.00;;;;;;;14.29;66.55;101206.84;4974085;28;20629;-78
2023/05/13 00:52:07;;;;;;;5.00;4.60;;;;;;;14.20;65.14;101228.91;4973597;28;20284;-78
2023/05/13 00:54:34;;;;;;;4.70;4.30;;;;;;;14.20;65.58;101233.31;4973735;28;20581;-78
2023/05/13 00:57:00;;;;;;;5.50;5.00;;;;;;;14.21;65.27;101246.41;4974142;28;20205;-80
2023/05/13 00:59:30;;;;;;;7.67;4.93;;;;;;;14.11;64.87;101263.22;4974015;28;20278;-79
2023/05/13 01:02:03;;;;;;;5.03;4.50;;;;;;;14.10;64.73;101265.00;4973607;28;20252;-78
2023/05/13 01:04:37;;;;;;;5.10;4.70;;;;;;;14.08;65.84;101258.06;4973624;28;20261;-78
2023/05/13 01:07:14;;;;;;;5.60;5.10;;;;;;;14.03;66.32;101233.66;4973813;28;20213;-78
2023/05/13 01:09:53;;;;;;;5.10;4.80;;;;;;;13.98;67.32;101225.03;4973825;28;20208;-77
2023/05/13 01:12:26;;;;;;;4.87;4.57;;;;;;;14.00;66.94;101210.09;4973698;28;20209;-76
2023/05/13 01:14:59;;;;;;;5.37;4.87;;;;;;;13.96;65.36;101230.28;4973683;28;20261;-76
2023/05/13 01:17:33;;;;;;;5.23;4.83;;;;;;;13.96;65.98;101238.16;4973337;28;20641;-80
2023/05/13 01:20:02;;;;;;;5.60;5.10;;;;;;;13.97;67.37;101223.28;4973467;28;20220;-78
2023/05/13 01:22:31;;;;;;;5.80;5.20;;;;;;;13.96;68.59;101205.81;4973348;28;20202;-78
2023/05/13 01:24:57;;;;;;;5.70;5.27;;;;;;;13.90;69.08;101173.53;4973310;28;20643;-78
2023/05/13 01:27:24;;;;;;;5.30;4.90;;;;;;;13.88;69.24;101154.34;4973402;28;20287;-78
2023/05/13 01:29:50;;;;;;;6.00;5.60;;;;;;;13.81;68.89;101147.47;4973164;28;20213;-78
2023/05/13 01:32:18;;;;;;;5.90;5.40;;;;;;;13.85;69.68;101145.66;4973345;28;20623;-78
2023/05/13 01:34:46;;;;;;;5.83;5.13;;;;;;;13.77;68.79;101137.09;4973124;28;20213;-79
2023/05/13 01:37:13;;;;;;;9.67;5.50;;;;;;;13.70;69.63;101139.84;4973042;28;20627;-78
2023/05/13 01:39:41;;;;;;;6.00;5.40;;;;;;;13.70;68.38;101142.47;4973310;28;20208;-78
2023/05/13 01:42:08;;;;;;;4.93;4.63;;;;;;;13.65;67.94;101160.03;4973082;28;20206;-78
2023/05/13 01:44:34;;;;;;;5.70;5.37;;;;;;;13.64;68.30;101173.22;4973190;28;20212;-76
2023/05/13 01:47:01;;;;;;;5.13;4.83;;;;;;;13.60;68.47;101175.03;4973066;28;20670;-78
2023/05/13 01:49:27;;;;;;;7.07;4.90;;;;;;;13.58;69.37;101166.31;4973115;28;20364;-80
2023/05/13 01:51:54;;;;;;;6.50;5.43;;;;;;;13.54;69.47;101159.41;4972808;28;20736;-79
2023/05/13 01:54:20;;;;;;;5.20;4.90;;;;;;;13.57;68.61;101161.97;4972482;28;20280;-78
2023/05/13 01:56:48;;;;;;;5.67;5.17;;;;;;;13.50;68.56;101163.84;4972544;28;20213;-79
2023/05/13 01:59:14;;;;;;;5.77;5.37;;;;;;;13.41;67.44;101186.75;4972977;28;20228;-78
2023/05/13 02:01:41;;;;;;;6.13;5.63;;;;;;;13.38;69.07;101182.44;4973181;28;20207;-79
2023/05/13 02:04:07;;;;;;;5.90;5.50;;;;;;;13.35;70.08;101158.03;4973049;28;20211;-79
2023/05/13 02:06:34;;;;;;;5.20;4.90;;;;;;;13.32;70.34;101138.00;4972876;28;20283;-78
2023/05/13 02:09:00;;;;;;;6.20;5.80;;;;;;;13.31;70.32;101134.47;4972967;28;20228;-78
2023/05/13 02:11:27;;;;;;;5.27;4.97;;;;;;;13.27;70.25;101124.06;4972567;28;20290;-79
2023/05/13 02:13:54;;;;;;;5.70;5.30;;;;;;;13.25;69.59;101128.47;4973047;28;20211;-79
2023/05/13 02:16:21;;;;;;;7.70;5.83;;;;;;;13.15;70.47;101134.78;4972793;28;20250;-78
2023/05/13 02:18:48;;;;;;;5.90;5.50;;;;;;;13.15;69.98;101135.63;4972769;28;20240;-78
2023/05/13 02:21:14;;;;;;;6.53;5.93;;;;;;;13.13;70.15;101132.19;4972582;28;20697;-78
2023/05/13 02:23:41;;;;;;;6.20;5.60;;;;;;;13.05;71.04;101111.34;4972584;28;20296;-78
2023/05/13 02:26:07;;;;;;;6.30;5.90;;;;;;;13.09;71.32;101107.78;4972597;28;20250;-79
2023/05/13 02:28:33;;;;;;;7.27;5.90;;;;;;;13.10;71.63;101100.75;4972629;28;20236;-78
2023/05/13 02:31:01;;;;;;;5.83;5.33;;;;;;;13.09;71.83;101096.44;4972911;28;20204;-80
2023/05/13 02:33:28;;;;;;;6.33;5.73;;;;;;;13.05;71.73;101095.63;4972764;28;20216;-78
2023/05/13 02:35:54;;;;;;;6.37;5.87;;;;;;;12.98;71.70;101096.63;4972853;28;20204;-80
2023/05/13 02:38:21;;;;;;;6.37;5.73;;;;;;;12.95;71.09;101101.06;4972996;28;20236;-79
2023/05/13 02:40:47;;;;;;;6.97;5.60;;;;;;;12.91;71.44;101103.72;4972415;28;20212;-79
2023/05/13 02:43:13;;;;;;;6.50;6.00;;;;;;;12.93;71.61;101103.72;4972767;28;20212;-78
2023/05/13 02:45:40;;;;;;;6.27;5.87;;;;;;;12.81;71.95;101103.94;4972733;28;20231;-79
2023/05/13 02:48:09;;;;;;;6.63;5.90;;;;;;;12.80;72.16;101096.97;4972532;28;20710;-78
2023/05/13 02:50:36;;;;;;;5.93;5.43;;;;;;;12.81;71.47;101098.69;4972421;28;20584;-79
2023/05/13 02:53:02;;;;;;;6.53;6.00;;;;;;;12.79;71.49;101105.72;4972283;28;20263;-79
2023/05/13 02:55:29;;;;;;;6.47;6.03;;;;;;;12.77;72.08;101097.03;4974661;28;20602;-79
2023/05/13 02:57:55;;;;;;;6.13;5.63;;;;;;;12.81;72.32;101096.94;4976130;28;20597;-78
2023/05/13 03:00:22;;;;;;;6.37;5.73;;;;;;;12.78;73.38;101085.63;4975988;28;20218;-78
2023/05/13 03:02:48;;;;;;;5.97;5.57;;;;;;;12.77;72.60;101074.31;4976035;28;20607;-78
2023/05/13 03:05:16;;;;;;;6.57;6.07;;;;;;;12.82;72.13;101082.94;4976163;28;20270;-78
2023/05/13 03:07:42;;;;;;;8.47;5.87;;;;;;;12.79;71.94;101095.25;4975646;28;20291;-79
2023/05/13 03:10:09;;;;;;;6.53;6.07;;;;;;;12.83;72.02;101102.16;4975804;28;20200;-78
2023/05/13 03:12:36;;;;;;;6.67;6.07;;;;;;;12.71;72.76;101095.38;4975982;28;20267;-78
2023/05/13 03:15:03;;;;;;;6.23;5.80;;;;;;;12.66;72.37;101098.03;4975923;28;20245;-78
2023/05/13 03:17:30;;;;;;;6.40;6.00;;;;;;;12.60;73.83;101100.78;4975700;28;20271;-79
2023/05/13 03:19:57;;;;;;;6.20;5.70;;;;;;;12.56;73.13;101091.25;4975523;28;20256;-79
2023/05/13 03:22:25;;;;;;;6.23;5.73;;;;;;;12.54;73.65;101079.94;4975295;28;20263;-78
2023/05/13 03:24:51;;;;;;;6.07;5.57;;;;;;;12.54;73.55;101082.53;4975431;28;20204;-80
2023/05/13 03:27:18;;;;;;;10.13;6.43;;;;;;;12.52;73.97;101081.72;4975635;28;20224;-79
2023/05/13 03:29:44;;;;;;;6.90;5.80;;;;;;;12.48;74.47;101061.69;4975433;28;20635;-78
2023/05/13 03:32:11;;;;;;;6.43;5.90;;;;;;;12.45;75.04;101051.31;4975327;28;20584;-78
2023/05/13 03:34:37;;;;;;;6.20;5.70;;;;;;;12.44;75.04;101042.56;4975445;28;20205;-78
2023/05/13 03:37:04;;;;;;;6.53;5.90;;;;;;;12.40;75.17;101033.03;4975245;28;20208;-79
2023/05/13 03:39:32;;;;;;;6.87;6.20;;;;;;;12.29;76.02;101027.97;4975501;28;20228;-78
2023/05/13 03:41:58;;;;;;;6.37;5.77;;;;;;;12.32;76.42;101024.44;4975031;28;20621;-78
2023/05/13 03:44:25;;;;;;;6.33;5.73;;;;;;;12.29;76.00;101008.81;4975398;28;20271;-79
2023/05/13 03:46:51;;;;;;;6.30;5.80;;;;;;;12.26;76.29;101017.56;4975056;28;20665;-78
2023/05/13 03:49:18;;;;;;;6.53;6.03;;;;;;;12.26;76.67;101001.84;4974962;28;20228;-79
2023/05/13 03:51:44;;;;;;;6.00;5.50;;;;;;;12.23;76.50;101004.53;4975028;28;20224;-78
2023/05/13 03:54:11;;;;;;;8.97;5.90;;;;;;;12.15;76.95;101008.16;4974786;28;20725;-79
2023/05/13 03:56:38;;;;;;;7.23;6.53;;;;;;;12.19;77.60;100999.34;4975157;28;20202;-78
2023/05/13 03:59:05;;;;;;;5.47;5.07;;;;;;;12.12;78.23;100978.53;4974884;28;20315;-78
2023/05/13 04:01:31;;;;;;;6.83;6.43;;;;;;;12.12;77.71;100985.50;4974643;28;20204;-79
2023/05/13 04:03:58;;;;;;;6.47;5.97;;;;;;;12.18;77.97;100987.16;4974723;28;20217;-79
2023/05/13 04:06:24;;;;;;;7.87;5.70;;;;;;;12.15;77.25;100979.34;4973576;28;20633;-78
2023/05/13 04:08:51;;;;;;;6.83;6.33;;;;;;;12.25;78.04;100986.16;4974879;28;20224;-78
2023/05/13 04:11:17;;;;;;;6.17;5.63;;;;;;;12.28;78.98;100973.03;4974758;28;20220;-79
2023/05/13 04:13:45;;;;;;;6.77;6.23;;;;;;;12.37;79.08;100979.84;4974781;28;20212;-78
2023/05/13 04:16:13;;;;;;;7.30;5.77;;;;;;;12.38;78.96;100966.75;4974606;28;20211;-78
2023/05/13 04:18:39;;;;;;;6.03;5.63;;;;;;;12.37;78.56;100975.50;4974270;28;20282;-78
2023/05/13 04:21:06;;;;;;;6.50;5.80;;;;;;;12.38;78.32;100984.22;4974563;28;20213;-76
2023/05/13 04:23:33;;;;;;;7.20;6.70;;;;;;;12.39;78.44;100988.53;4974415;28;20263;-76
2023/05/13 04:25:59;;;;;;;6.80;6.20;;;;;;;12.41;78.40;100994.66;4974377;28;20225;-76
2023/05/13 04:28:26;;;;;;;6.57;5.93;;;;;;;12.48;77.90;101001.47;4974359;28;20302;-78
2023/05/13 04:30:54;;;;;;;6.67;6.17;;;;;;;12.54;77.29;101016.22;4974116;28;20670;-78
2023/05/13 04:33:20;;;;;;;6.93;6.33;;;;;;;12.58;77.19;101031.84;4974499;28;20208;-79
2023/05/13 04:35:47;;;;;;;6.67;6.07;;;;;;;12.56;77.16;101045.88;4974115;28;20614;-78
2023/05/13 04:38:13;;;;;;;6.83;6.23;;;;;;;12.61;77.51;101052.75;4974203;28;20228;-79
2023/05/13 04:40:39;;;;;;;6.50;6.10;;;;;;;12.52;78.84;101034.56;4974104;28;20222;-79
2023/05/13 04:43:06;;;;;;;7.23;6.63;;;;;;;12.47;78.90;101025.94;4974092;28;20211;-79
2023/05/13 04:45:32;;;;;;;6.33;5.83;;;;;;;12.55;79.22;101005.72;4973796;28;20212;-79
2023/05/13 04:48:00;;;;;;;6.33;5.93;;;;;;;12.49;78.86;101011.94;4974159;28;20228;-78
2023/05/13 04:50:26;;;;;;;7.93;7.23;;;;;;;12.46;78.30;101026.81;4974066;28;20559;-78
2023/05/13 04:52:53;;;;;;;7.00;6.40;;;;;;;12.47;78.39;101036.44;4973831;28;20266;-79
2023/05/13 04:55:20;;;;;;;7.30;6.70;;;;;;;12.49;78.94;101032.03;4973903;28;20210;-78
2023/05/13 04:57:46;;;;;;;8.23;6.63;;;;;;;12.58;78.37;101029.22;4973905;28;20228;-78
2023/05/13 05:00:14;;;;;;;7.13;6.43;;;;;;;12.62;78.75;101037.91;4973598;28;20213;-78
2023/05/13 05:02:40;;;;;;;7.73;6.70;;;;;;;12.60;78.56;101053.63;4973902;28;20208;-78
2023/05/13 05:05:08;;;;;;;7.70;7.10;;;;;;;12.66;78.09;101069.22;4973942;28;20209;-78
2023/05/13 05:07:39;;;;;;;6.87;6.23;;;;;;;12.68;78.09;101079.69;4973710;28;20232;-78
2023/05/13 05:10:06;;;;;;;7.00;6.50;;;;;;;12.67;77.96;101078.84;4973659;28;20302;-77
2023/05/13 05:12:33;;;;;;;6.73;6.13;;;;;;;12.76;76.42;101095.28;4973520;28;20212;-78
2023/05/13 05:14:59;;;;;;;6.80;6.13;;;;;;;12.76;73.99;101147.69;4972079;28;20216;-78
2023/05/13 05:17:26;;;;;;;7.03;6.47;;;;;;;12.82;74.76;101176.38;4973094;28;20213;-78
2023/05/13 05:19:54;;;;;;;8.20;7.03;;;;;;;12.79;75.41;101165.97;4997051;23;20235;-77
2023/05/13 05:22:21;;;;;;;6.63;5.93;;;;;;;12.88;74.15;101190.28;4992549;28;20207;-77
2023/05/13 05:24:48;;;;;;;7.43;6.93;;;;;;;12.91;73.71;101203.31;4992131;28;20731;-77
2023/05/13 05:27:14;;;;;;;6.87;6.23;;;;;;;12.90;74.96;101208.56;4992937;28;20230;-77
2023/05/13 05:29:41;;;;;;;6.87;6.37;;;;;;;12.90;75.40;101196.34;4993015;28;20209;-77
2023/05/13 05:32:08;;;;;;;7.00;6.50;;;;;;;12.98;73.55;101218.94;4992721;28;20207;-77
2023/05/13 05:34:34;;;;;;;7.03;6.57;;;;;;;12.96;75.10;101211.09;4992856;28;20266;-77
2023/05/13 05:37:01;;;;;;;7.30;6.10;;;;;;;12.99;74.33;101211.06;4992820;28;20751;-77
2023/05/13 05:39:29;;;;;;;6.87;6.23;;;;;;;13.06;72.16;101258.97;4992602;28;20223;-77
2023/05/13 05:41:55;;;;;;;7.40;6.90;;;;;;;13.09;71.40;101285.16;4992740;28;20211;-77
2023/05/13 05:44:21;;;;;;;8.63;7.40;;;;;;;13.07;71.97;101300.03;4992821;28;20209;-77
2023/05/13 05:46:48;;;;;;;7.90;7.13;;;;;;;13.06;71.84;101312.28;4992711;28;20227;-77
2023/05/13 05:49:14;;;;;;;7.80;7.00;;;;;;;13.08;72.35;101305.28;4992542;28;20595;-77
2023/05/13 05:51:41;;;;;;;7.67;7.03;;;;;;;13.12;72.93;101313.94;4992314;28;20701;-77
2023/05/13 05:54:07;;;;;;;6.83;6.43;;;;;;;13.18;70.64;101320.84;4992506;28;20215;-77
2023/05/13 05:56:35;;;;;;;7.20;6.50;;;;;;;13.21;71.32;101333.91;4992573;28;20207;-76
2023/05/13 05:59:01;;;;;;;7.27;6.67;;;;;;;13.26;70.47;101340.81;4992577;28;20228;-76
2023/05/13 06:01:32;;;;;;;7.13;6.63;;;;;;;13.32;69.49;101371.38;4992406;28;20218;-76
2023/05/13 06:03:59;;;;;;;6.77;6.27;;;;;;;13.37;68.69;101382.63;4992701;28;20345;-76
2023/05/13 06:06:25;;;;;;;7.23;6.63;;;;;;;13.40;69.20;101400.06;4992273;28;20231;-76
2023/05/13 06:08:51;;;;;;;7.83;6.70;;;;;;;13.42;70.09;101391.31;4992714;28;20633;-76
2023/05/13 06:11:18;;;;;;;7.27;6.53;;;;;;;13.45;70.09;101386.00;4992232;28;20209;-75
2023/05/13 06:13:45;;;;;;;6.83;6.43;;;;;;;13.47;70.50;101383.34;4992578;28;20262;-75
2023/05/13 06:16:12;;;;;;;7.63;6.63;;;;;;;13.52;71.17;101373.66;4992070;28;20208;-75
2023/05/13 06:18:39;;;;;;;7.37;6.70;;;;;;;13.61;70.95;101349.88;4992130;28;20278;-75
2023/05/13 06:21:05;;;;;;;7.13;6.53;;;;;;;13.67;70.38;101360.28;4990964;28;20203;-75
2023/05/13 06:23:32;;;;;;;6.20;5.80;;;;;;;13.72;69.36;101368.09;4992177;28;20207;-75
2023/05/13 06:25:58;;;;;;;7.33;6.73;;;;;;;13.73;68.96;101393.41;4991452;28;20212;-75
2023/05/13 06:28:25;;;;;;;6.60;6.00;;;;;;;13.71;69.54;101405.69;4992253;28;20232;-75
2023/05/13 06:30:53;;;;;;;7.50;6.80;;;;;;;13.73;69.22;101416.19;4995003;28;20264;-75
2023/05/13 06:33:19;;;;;;;6.90;6.30;;;;;;;13.75;69.18;101417.03;4996105;28;20693;-75
2023/05/13 06:35:48;;;;;;;7.50;6.87;;;;;;;13.77;69.27;101405.59;4995888;28;20682;-75
2023/05/13 06:38:16;;;;;;;9.43;7.00;;;;;;;13.85;69.04;101405.47;4995279;28;20280;-75
2023/05/13 06:40:43;;;;;;;6.97;6.00;;;;;;;13.92;68.85;101403.63;4995833;28;20220;-75
2023/05/13 06:43:11;;;;;;;6.70;6.20;;;;;;;13.97;68.98;101407.03;4995839;28;20745;-75
2023/05/13 06:45:37;;;;;;;6.87;6.37;;;;;;;14.00;68.67;101415.72;4995933;28;20260;-75
2023/05/13 06:48:06;;;;;;;7.67;7.10;;;;;;;14.04;69.17;101414.75;4995641;28;20292;-75
2023/05/13 06:50:32;;;;;;;7.87;7.17;;;;;;;14.08;69.27;101410.34;4995497;28;20215;-75
2023/05/13 06:52:58;;;;;;;7.37;6.67;;;;;;;14.13;69.52;101408.47;4995998;28;20266;-75
2023/05/13 06:55:25;;;;;;;7.67;7.03;;;;;;;14.16;68.80;101402.31;4995742;28;20258;-75
2023/05/13 06:57:51;;;;;;;7.50;6.97;;;;;;;14.19;69.34;101408.38;4995373;28;20226;-75
2023/05/13 07:00:18;;;;;;;9.63;7.67;;;;;;;14.25;69.61;101394.25;4995508;28;20318;-75
2023/05/13 07:02:45;;;;;;;7.17;6.67;;;;;;;14.29;69.53;101388.94;4995333;28;20209;-75
2023/05/13 07:05:12;;;;;;;7.90;7.30;;;;;;;14.27;69.49;101401.22;4995716;28;20213;-75
2023/05/13 07:07:39;;;;;;;9.33;7.20;;;;;;;14.32;69.77;101385.38;4995415;28;20278;-75
2023/05/13 07:10:06;;;;;;;28.63;8.87;;;;;;;14.43;71.23;101364.13;4995194;28;20207;-75
2023/05/13 07:12:33;;;;;;;40.40;9.40;;;;;;;14.46;70.83;101359.69;4995190;28;20266;-75
2023/05/13 07:14:59;;;;;;;7.43;6.97;;;;;;;14.54;70.56;101330.63;4995032;28;20631;-75
2023/05/13 07:17:26;;;;;;;7.87;7.27;;;;;;;14.56;70.40;101336.75;4995020;28;20228;-75
2023/05/13 07:19:52;;;;;;;7.93;7.27;;;;;;;14.63;69.43;101355.91;4995089;28;20212;-75
2023/05/13 07:22:20;;;;;;;14.20;7.93;;;;;;;14.68;70.41;101359.28;4994652;28;20208;-75
2023/05/13 07:24:46;;;;;;;7.97;7.30;;;;;;;14.72;69.56;101360.94;4994816;28;20208;-75
2023/05/13 07:27:12;;;;;;;8.30;7.60;;;;;;;14.75;69.09;101376.66;4994992;28;20282;-75
2023/05/13 07:29:39;;;;;;;9.10;8.40;;;;;;;14.81;70.21;101359.91;4995276;28;20205;-75
2023/05/13 07:32:06;;;;;;;8.20;7.50;;;;;;;14.89;70.08;101366.72;4994255;28;20617;-75
2023/05/13 07:34:33;;;;;;;11.63;7.57;;;;;;;14.91;69.91;101363.19;4995218;28;20209;-75
2023/05/13 07:36:59;;;;;;;7.80;7.07;;;;;;;14.96;68.87;101367.44;4994669;28;20272;-75
2023/05/13 07:39:27;;;;;;;8.00;7.20;;;;;;;15.06;68.89;101379.50;4994729;28;20229;-75
2023/05/13 07:41:53;;;;;;;8.63;7.80;;;;;;;15.11;68.33;101392.53;4994116;28;20670;-75
2023/05/13 07:44:20;;;;;;;8.53;7.70;;;;;;;15.15;68.58;101394.19;4994759;28;20214;-75
2023/05/13 07:46:47;;;;;;;7.83;7.23;;;;;;;15.17;67.88;101413.44;4994575;28;20214;-75
2023/05/13 07:49:14;;;;;;;8.37;7.80;;;;;;;15.21;68.59;101403.72;4994850;28;20230;-75
2023/05/13 07:51:40;;;;;;;8.90;8.00;;;;;;;15.27;68.93;101404.41;4994474;28;20212;-75
2023/05/13 07:54:09;;;;;;;8.17;7.57;;;;;;;15.35;68.96;101400.75;4994621;28;20205;-75
2023/05/13 07:56:37;;;;;;;8.10;7.50;;;;;;;15.44;68.53;101397.88;4994499;28;20251;-75
2023/05/13 07:59:04;;;;;;;14.90;8.07;;;;;;;15.51;69.30;101377.59;4994201;28;20711;-75
2023/05/13 08:01:30;;;;;;;8.37;7.63;;;;;;;15.56;68.39;101386.22;4994338;28;20300;-75
2023/05/13 08:03:57;;;;;;;8.00;7.40;;;;;;;15.62;68.56;101402.72;4994238;28;20213;-75
2023/05/13 08:06:23;;;;;;;8.23;7.67;;;;;;;15.66;72.48;101364.91;4994178;28;20260;-75
2023/05/13 08:08:50;;;;;;;7.80;7.20;;;;;;;15.70;70.53;101347.28;4994095;28;20273;-75
2023/05/13 08:11:16;;;;;;;8.30;7.60;;;;;;;15.77;67.97;101362.03;4993748;28;20217;-75
2023/05/13 08:13:44;;;;;;;7.73;7.13;;;;;;;15.86;66.62;101416.22;4994085;28;20278;-75
2023/05/13 08:16:10;;;;;;;8.23;7.57;;;;;;;15.90;67.26;101433.69;4994294;28;20212;-75
2023/05/13 08:18:37;;;;;;;8.83;8.13;;;;;;;15.95;67.24;101447.56;4994031;28;20360;-75
2023/05/13 08:21:03;;;;;;;8.07;7.57;;;;;;;15.98;67.19;101434.34;4993899;28;20213;-75
2023/05/13 08:23:30;;;;;;;7.87;7.33;;;;;;;16.05;66.78;101449.09;4993985;28;20218;-75
2023/05/13 08:25:57;;;;;;;6.90;6.40;;;;;;;16.13;65.54;101466.44;4993962;28;20746;-75
2023/05/13 08:28:25;;;;;;;7.77;7.27;;;;;;;16.20;65.29;101487.34;4993650;28;20285;-75
2023/05/13 08:30:53;;;;;;;7.53;6.93;;;;;;;16.21;64.64;101504.88;4993793;28;20293;-75
2023/05/13 08:33:19;;;;;;;7.50;7.00;;;;;;;16.25;64.44;101522.34;4994009;28;20214;-75
2023/05/13 08:35:46;;;;;;;7.00;6.60;;;;;;;16.24;63.98;101531.13;4993724;28;20211;-75
2023/05/13 08:38:12;;;;;;;8.87;7.63;;;;;;;16.29;63.06;101552.09;4993618;28;20277;-75
2023/05/13 08:40:39;;;;;;;7.53;6.80;;;;;;;16.30;62.76;101577.56;4993219;28;20621;-75
2023/05/13 08:43:07;;;;;;;7.20;6.70;;;;;;;16.37;62.63;101594.06;4994623;28;20215;-76
2023/05/13 08:45:35;;;;;;;8.23;7.43;;;;;;;16.45;63.61;101584.19;4993809;28;20210;-76
2023/05/13 08:48:05;;;;;;;7.30;6.40;;;;;;;16.55;63.04;101580.44;4993499;28;20261;-75
2023/05/13 08:50:32;;;;;;;6.90;6.33;;;;;;;16.60;64.10;101589.09;4993304;28;20232;-76
2023/05/13 08:52:59;;;;;;;7.33;6.73;;;;;;;16.66;61.35;101595.97;4993005;28;20210;-76
2023/05/13 08:55:26;;;;;;;7.77;6.50;;;;;;;16.76;61.66;101621.19;4993323;28;20253;-76
2023/05/13 08:57:53;;;;;;;7.70;7.10;;;;;;;16.85;62.38;101620.16;4993223;28;20755;-76
2023/05/13 09:00:20;;;;;;;8.00;7.43;;;;;;;16.90;62.74;101599.78;4993109;28;20216;-75
2023/05/13 09:02:46;;;;;;;7.60;7.10;;;;;;;16.97;62.31;101606.63;4993318;28;20206;-75
2023/05/13 09:05:15;;;;;;;8.53;7.73;;;;;;;17.04;61.92;101604.69;4992493;28;20346;-75
2023/05/13 09:07:41;;;;;;;7.47;6.97;;;;;;;17.07;61.95;101621.28;4993445;28;20312;-76
2023/05/13 09:10:09;;;;;;;7.50;6.90;;;;;;;17.15;62.82;101617.59;4992963;28;20221;-75
2023/05/13 09:12:43;;;;;;;7.67;7.07;;;;;;;17.22;62.46;101598.03;4993092;28;20206;-76
2023/05/13 09:15:11;;;;;;;7.60;6.90;;;;;;;17.24;63.23;101614.69;4993306;28;20215;-75
2023/05/13 09:17:38;;;;;;;8.10;7.40;;;;;;;17.32;61.68;101591.56;4992988;28;20242;-76
2023/05/13 09:20:07;;;;;;;8.50;7.70;;;;;;;17.36;61.91;101610.84;4992840;28;20245;-75
2023/05/13 09:22:35;;;;;;;7.83;7.10;;;;;;;17.45;62.28;101595.59;4992788;28;20206;-76
2023/05/13 09:25:02;;;;;;;7.97;7.37;;;;;;;17.50;61.61;101606.00;4993184;28;20580;-76
2023/05/13 09:27:36;;;;;;;7.73;7.23;;;;;;;17.56;61.63;101611.16;4992153;28;20723;-76
2023/05/13 09:30:04;;;;;;;7.70;7.10;;;;;;;17.59;63.39;101582.00;4992268;28;20202;-76
2023/05/13 09:32:30;;;;;;;8.00;7.23;;;;;;;17.71;64.00;101553.50;4989755;28;20258;-76
2023/05/13 09:34:57;;;;;;;7.90;7.37;;;;;;;17.79;61.98;101554.13;4992254;28;20207;-76
2023/05/13 09:37:24;;;;;;;7.40;6.70;;;;;;;17.85;62.82;101589.16;4992798;28;20202;-76
2023/05/13 09:39:52;;;;;;;8.17;7.43;;;;;;;17.90;60.72;101606.63;4992784;28;20211;-76
2023/05/13 09:42:19;;;;;;;7.40;6.67;;;;;;;17.96;60.92;101615.25;4992302;28;20696;-76
2023/05/13 09:44:47;;;;;;;9.10;7.10;;;;;;;18.00;60.03;101626.59;4992748;28;20211;-75
2023/05/13 09:47:14;;;;;;;7.80;7.20;;;;;;;18.04;59.84;101652.00;4992293;28;20298;-76
2023/05/13 09:49:41;;;;;;;7.50;6.93;;;;;;;18.14;59.59;101657.88;4993171;28;20215;-76
2023/05/13 09:52:10;;;;;;;6.97;6.47;;;;;;;18.21;59.41;101659.41;4992854;28;20269;-76
2023/05/13 09:54:36;;;;;;;10.80;6.90;;;;;;;18.27;57.79;101667.13;4972061;28;20234;-76
2023/05/13 09:57:05;;;;;;;6.70;6.10;;;;;;;18.37;57.12;101713.50;4971063;28;20736;-76
2023/05/13 09:59:32;;;;;;;7.23;6.73;;;;;;;18.39;57.57;101747.84;4971137;28;20282;-75
2023/05/13 10:02:00;;;;;;;6.73;6.23;;;;;;;18.46;56.93;101754.69;4970385;28;20212;-76
2023/05/13 10:04:27;;;;;;;6.83;6.23;;;;;;;18.55;56.71;101762.34;4971218;28;20211;-75
2023/05/13 10:06:55;;;;;;;6.63;6.13;;;;;;;18.60;57.64;101696.94;4975252;28;20200;-76
2023/05/13 10:09:23;;;;;;;7.07;6.17;;;;;;;18.67;58.63;101718.75;4986269;28;20242;-76
2023/05/13 10:11:49;;;;;;;5.80;5.30;;;;;;;18.79;56.67;101736.00;4996017;28;20210;-76
2023/05/13 10:14:17;;;;;;;6.03;5.47;;;;;;;18.82;58.13;101722.72;4996298;28;20214;-76
2023/05/13 10:16:46;;;;;;;6.60;6.00;;;;;;;18.89;55.45;101741.88;4996214;28;20753;-76
2023/05/13 10:19:13;;;;;;;6.63;6.00;;;;;;;18.93;55.90;101756.75;4996234;28;20645;-76
2023/05/13 10:21:41;;;;;;;6.00;5.50;;;;;;;18.96;53.86;101783.97;4995893;28;20212;-76
2023/05/13 10:24:08;;;;;;;6.30;5.80;;;;;;;19.01;54.01;101829.69;4996282;28;20207;-75
2023/05/13 10:26:35;;;;;;;6.10;5.50;;;;;;;19.05;53.35;101838.41;4996127;28;20311;-76
2023/05/13 10:29:02;;;;;;;5.87;5.37;;;;;;;19.11;53.86;101848.81;4995920;28;20701;-76
2023/05/13 10:31:31;;;;;;;5.87;5.37;;;;;;;19.23;55.83;101806.03;4996023;28;20215;-76
2023/05/13 10:33:58;;;;;;;5.80;5.30;;;;;;;19.28;55.76;101765.31;4996169;28;20289;-76
2023/05/13 10:36:44;;;;;;;5.83;5.00;;;;;;;19.36;52.52;101776.50;4995993;28;20265;-76
2023/05/13 10:39:28;;;;;;;4.83;4.33;;;;;;;19.47;50.96;101860.91;4995748;28;20227;-76
2023/05/13 10:42:25;;;;;;;5.37;4.40;;;;;;;19.53;49.41;101945.44;4995566;28;20665;-76
2023/05/13 10:44:54;;;;;;;4.30;3.87;;;;;;;19.52;49.29;101991.38;4995977;28;20207;-76
2023/05/13 10:47:21;;;;;;;5.57;3.97;;;;;;;19.55;49.03;102036.31;4995717;28;20242;-76
2023/05/13 10:49:51;;;;;;;5.03;4.60;;;;;;;19.59;47.82;102046.75;4995576;28;20227;-76
2023/05/13 10:52:18;;;;;;;5.33;4.47;;;;;;;19.71;47.92;102073.81;4995479;28;20207;-76
2023/05/13 10:55:00;;;;;;;5.23;4.80;;;;;;;19.79;48.53;102075.31;4995252;28;20211;-76
2023/05/13 10:57:36;;;;;;;6.73;4.37;;;;;;;19.86;46.89;102062.75;4995818;28;20227;-76
2023/05/13 11:00:13;;;;;;;4.37;3.90;;;;;;;19.93;46.66;102127.03;4996714;28;20696;-76
2023/05/13 11:02:41;;;;;;;4.03;3.73;;;;;;;20.03;46.29;102128.47;5003457;28;20210;-76
2023/05/13 11:05:08;;;;;;;3.83;3.53;;;;;;;20.07;45.92;102164.56;4995730;28;20210;-76
2023/05/13 11:07:38;;;;;;;5.97;3.83;;;;;;;20.17;45.16;102173.13;4995264;28;20227;-76
2023/05/13 11:10:21;;;;;;;5.10;4.57;;;;;;;20.24;46.05;102195.88;4995038;28;20554;-76
2023/05/13 11:13:23;;;;;;;4.33;4.03;;;;;;;20.42;50.43;102107.75;4995015;28;20214;-76
2023/05/13 11:15:51;;;;;;;4.30;4.00;;;;;;;20.64;47.31;102016.84;4993338;28;20676;-76
2023/05/13 11:18:20;;;;;;;4.77;4.37;;;;;;;20.76;47.30;102045.59;4995057;28;20228;-76
2023/05/13 11:20:47;;;;;;;7.27;4.37;;;;;;;20.92;47.38;102061.81;4993275;23;20236;-76
2023/05/13 11:23:18;;;;;;;4.77;4.40;;;;;;;21.09;46.73;102060.31;4974804;28;20590;-75
2023/05/13 11:25:45;;;;;;;5.47;4.60;;;;;;;21.25;47.34;102071.25;4974680;28;21254;-75